Time;durP1;ratioP1;P1;durP2;ratioP2;P2;SDS_P1;SDS_P2;PMS_P1;PMS_P2;Temp;Humidity;BMP_temperature;BMP_pressure;BME280_temperature;BME280_humidity;BME280_pressure;Samples;Min_cycle;Max_cycle;Signal;HPM_P1;HPM_P2
2022/04/13 00:01:00;;;;;;;;;;;;;;;13.09;35.58;100033.66;4488995;31;32818;-64
2022/04/13 00:03:29;;;;;;;;;;;;;;;13.05;35.83;100038.44;4484793;31;33090;-64
2022/04/13 00:05:58;;;;;;;;;;;;;;;12.92;35.78;100043.06;4488246;31;35289;-65
2022/04/13 00:08:27;;;;;;;;;;;;;;;12.94;36.13;100037.59;4489039;31;34052;-63
2022/04/13 00:10:55;;;;;;;;;;;;;;;13.08;36.38;100039.16;4494877;31;34902;-63
2022/04/13 00:13:24;;;;;;;;;;;;;;;13.04;36.07;100035.88;4484950;31;33484;-65
2022/04/13 00:15:52;;;;;;;;;;;;;;;13.20;36.00;100047.09;4485715;31;34313;-65
2022/04/13 00:18:21;;;;;;;;;;;;;;;13.24;35.62;100042.31;4492898;31;33215;-67
2022/04/13 00:20:49;;;;;;;;;;;;;;;13.23;36.45;100056.75;4485532;31;34336;-65
2022/04/13 00:23:18;;;;;;;;;;;;;;;13.18;36.06;100053.56;4484354;31;34291;-65
2022/04/13 00:25:47;;;;;;;;;;;;;;;13.16;35.57;100053.72;4495067;31;33270;-67
2022/04/13 00:28:16;;;;;;;;;;;;;;;13.10;35.88;100051.50;4484156;32;34585;-67
2022/04/13 00:30:46;;;;;;;;;;;;;;;13.09;35.14;100047.09;4482273;31;34284;-65
2022/04/13 00:33:14;;;;;;;;;;;;;;;12.88;35.26;100048.81;4487633;31;33431;-65
2022/04/13 00:35:42;;;;;;;;;;;;;;;12.67;36.20;100043.31;4487851;31;34589;-64
2022/04/13 00:38:10;;;;;;;;;;;;;;;12.72;36.28;100051.88;4487897;31;34188;-66
2022/04/13 00:40:41;;;;;;;;;;;;;;;12.73;35.68;100048.19;4493119;31;34439;-66
2022/04/13 00:43:10;;;;;;;;;;;;;;;12.67;36.25;100048.69;4484539;32;33350;-66
2022/04/13 00:45:39;;;;;;;;;;;;;;;12.63;36.16;100040.00;4482852;32;34185;-66
2022/04/13 00:48:08;;;;;;;;;;;;;;;12.50;36.15;100050.84;4490452;31;34432;-67
2022/04/13 00:50:36;;;;;;;;;;;;;;;12.49;36.55;100048.31;4475926;31;33177;-67
2022/04/13 00:53:05;;;;;;;;;;;;;;;12.42;36.65;100055.09;4493596;31;32117;-64
2022/04/13 00:55:33;;;;;;;;;;;;;;;12.45;36.57;100050.34;4488166;31;34337;-65
2022/04/13 00:58:01;;;;;;;;;;;;;;;12.48;36.79;100050.13;4476675;31;34231;-65
2022/04/13 01:00:29;;;;;;;;;;;;;;;12.61;36.31;100050.00;4479225;31;33029;-65
2022/04/13 01:02:57;;;;;;;;;;;;;;;12.56;36.73;100057.59;4500325;31;34850;-65
2022/04/13 01:05:26;;;;;;;;;;;;;;;12.80;35.64;100054.78;4472474;31;33828;-63
2022/04/13 01:07:54;;;;;;;;;;;;;;;12.78;36.07;100065.66;4476310;32;33057;-63
2022/04/13 01:10:22;;;;;;;;;;;;;;;12.57;36.85;100054.78;4470784;32;34350;-62
2022/04/13 01:12:50;;;;;;;;;;;;;;;12.80;35.67;100054.78;4473489;31;33448;-63
2022/04/13 01:15:20;;;;;;;;;;;;;;;12.61;35.81;100055.38;4487584;31;34091;-63
2022/04/13 01:17:49;;;;;;;;;;;;;;;12.65;35.96;100054.19;4485425;31;35412;-63
2022/04/13 01:20:22;;;;;;;;;;;;;;;12.67;36.35;100056.72;4496805;31;33318;-66
2022/04/13 01:22:50;;;;;;;;;;;;;;;12.72;35.90;100060.78;4486122;31;32367;-62
2022/04/13 01:25:19;;;;;;;;;;;;;;;12.95;34.96;100063.47;4488732;31;35620;-63
2022/04/13 01:27:48;;;;;;;;;;;;;;;12.89;35.74;100064.81;4485812;31;34433;-63
2022/04/13 01:30:16;;;;;;;;;;;;;;;12.88;35.50;100059.56;4484350;31;34129;-67
2022/04/13 01:32:44;;;;;;;;;;;;;;;12.84;35.39;100058.97;4487144;31;32929;-64
2022/04/13 01:35:12;;;;;;;;;;;;;;;12.84;35.51;100058.97;4484065;31;33219;-66
2022/04/13 01:37:40;;;;;;;;;;;;;;;12.81;35.75;100062.75;4494231;31;34237;-74
2022/04/13 01:40:08;;;;;;;;;;;;;;;12.73;35.49;100065.16;4490986;31;33152;-63
2022/04/13 01:42:37;;;;;;;;;;;;;;;12.79;35.58;100070.06;4495112;31;32200;-66
2022/04/13 01:45:05;;;;;;;;;;;;;;;12.55;36.48;100067.47;4495130;31;34321;-65
2022/04/13 01:47:33;;;;;;;;;;;;;;;12.65;36.34;100072.09;4490518;31;34225;-63
2022/04/13 01:50:01;;;;;;;;;;;;;;;12.52;36.10;100070.41;4492966;31;33088;-63
2022/04/13 01:52:30;;;;;;;;;;;;;;;12.56;36.32;100079.06;4495953;31;32166;-64
2022/04/13 01:54:58;;;;;;;;;;;;;;;12.61;36.02;100084.06;4483824;31;32155;-63
2022/04/13 01:57:26;;;;;;;;;;;;;;;12.58;35.76;100075.28;4489041;31;33237;-63
2022/04/13 01:59:54;;;;;;;;;;;;;;;12.32;36.64;100077.28;4487064;31;34237;-63
2022/04/13 02:02:21;;;;;;;;;;;;;;;12.05;37.00;100076.72;4486183;31;31932;-63
2022/04/13 02:04:50;;;;;;;;;;;;;;;12.23;36.64;100088.75;4487869;31;32811;-64
2022/04/13 02:07:18;;;;;;;;;;;;;;;12.29;36.52;100082.03;4488650;31;33142;-63
2022/04/13 02:09:46;;;;;;;;;;;;;;;12.35;36.06;100086.94;4487991;31;34088;-64
2022/04/13 02:12:15;;;;;;;;;;;;;;;12.33;36.22;100084.37;4491836;31;33617;-65
2022/04/13 02:14:43;;;;;;;;;;;;;;;12.30;35.79;100083.75;4493071;31;34179;-65
2022/04/13 02:17:14;;;;;;;;;;;;;;;12.17;36.14;100083.84;4496117;31;34451;-64
2022/04/13 02:19:43;;;;;;;;;;;;;;;12.27;35.59;100079.47;4478797;31;35207;-63
2022/04/13 02:22:12;;;;;;;;;;;;;;;12.22;35.84;100086.16;4480853;32;34531;-63
2022/04/13 02:25:03;;;;;;;;;;;;;;;12.30;35.46;100090.00;4492503;31;35343;-63
2022/04/13 02:27:31;;;;;;;;;;;;;;;12.18;35.38;100084.69;4479371;31;34328;-63
2022/04/13 02:30:02;;;;;;;;;;;;;;;12.21;35.00;100082.62;4487503;31;32926;-63
2022/04/13 02:32:31;;;;;;;;;;;;;;;12.24;35.28;100087.75;4484386;31;32049;-64
2022/04/13 02:35:00;;;;;;;;;;;;;;;12.02;35.49;100085.00;4496095;31;33734;-67
2022/04/13 02:37:29;;;;;;;;;;;;;;;12.23;34.90;100085.19;4487578;31;34939;-67
2022/04/13 02:39:58;;;;;;;;;;;;;;;12.10;35.70;100086.12;4491694;31;33052;-64
2022/04/13 02:42:31;;;;;;;;;;;;;;;12.16;35.60;100084.78;4495374;31;33578;-64
2022/04/13 02:45:01;;;;;;;;;;;;;;;12.23;35.34;100080.69;4479041;31;34006;-65
2022/04/13 02:47:33;;;;;;;;;;;;;;;12.12;35.44;100091.37;4485464;31;34273;-63
2022/04/13 02:50:03;;;;;;;;;;;;;;;12.09;35.36;100094.28;4496690;31;33638;-65
2022/04/13 02:52:32;;;;;;;;;;;;;;;12.12;35.34;100088.69;4491688;31;32086;-64
2022/04/13 02:55:01;;;;;;;;;;;;;;;12.13;35.41;100090.41;4491292;31;34149;-65
2022/04/13 02:57:32;;;;;;;;;;;;;;;12.13;35.04;100090.41;4490814;31;34080;-66
2022/04/13 03:00:03;;;;;;;;;;;;;;;12.02;35.63;100085.84;4492000;31;33282;-64
2022/04/13 03:02:33;;;;;;;;;;;;;;;12.04;35.43;100086.59;4481932;31;32394;-66
2022/04/13 03:05:09;;;;;;;;;;;;;;;12.09;35.47;100084.41;4492014;31;34260;-63
2022/04/13 03:07:45;;;;;;;;;;;;;;;11.88;35.65;100094.94;4489638;31;32814;-63
2022/04/13 03:10:13;;;;;;;;;;;;;;;11.96;35.53;100090.81;4490409;31;33081;-67
2022/04/13 03:12:43;;;;;;;;;;;;;;;11.97;35.11;100089.84;4484903;31;34512;-66
2022/04/13 03:15:14;;;;;;;;;;;;;;;12.00;35.39;100094.97;4489656;31;33100;-64
2022/04/13 03:17:43;;;;;;;;;;;;;;;11.93;35.65;100094.59;4488928;31;34365;-67
2022/04/13 03:20:11;;;;;;;;;;;;;;;11.85;35.53;100105.91;4495077;31;33261;-63
2022/04/13 03:22:40;;;;;;;;;;;;;;;11.80;36.00;100104.47;4493379;31;34459;-63
2022/04/13 03:25:10;;;;;;;;;;;;;;;11.90;36.00;100100.19;4496821;31;32985;-63
2022/04/13 03:27:39;;;;;;;;;;;;;;;11.83;35.44;100097.06;4496300;31;34458;-63
2022/04/13 03:30:09;;;;;;;;;;;;;;;11.92;35.30;100105.44;4492022;31;34682;-64
2022/04/13 03:32:38;;;;;;;;;;;;;;;11.96;35.41;100104.22;4491217;31;33187;-64
2022/04/13 03:35:08;;;;;;;;;;;;;;;11.93;35.67;100108.00;4488044;31;34215;-64
2022/04/13 03:37:39;;;;;;;;;;;;;;;11.81;35.84;100114.22;4490700;31;34198;-63
2022/04/13 03:40:09;;;;;;;;;;;;;;;11.77;36.19;100110.94;4490259;31;33102;-63
2022/04/13 03:42:39;;;;;;;;;;;;;;;11.61;36.16;100118.37;4492412;31;33764;-63
2022/04/13 03:45:09;;;;;;;;;;;;;;;11.53;36.06;100120.78;4493654;31;34136;-63
2022/04/13 03:47:39;;;;;;;;;;;;;;;11.39;36.45;100121.78;4496919;31;34712;-63
2022/04/13 03:50:09;;;;;;;;;;;;;;;11.31;36.82;100127.69;4490224;31;33111;-63
2022/04/13 03:52:37;;;;;;;;;;;;;;;11.43;36.25;100124.13;4485911;31;33384;-65
2022/04/13 03:55:12;;;;;;;;;;;;;;;11.27;36.69;100123.53;4482463;31;33443;-65
2022/04/13 03:57:42;;;;;;;;;;;;;;;11.35;36.40;100133.69;4488946;31;33369;-67
2022/04/13 04:00:11;;;;;;;;;;;;;;;11.35;36.60;100134.53;4489133;31;34630;-66
2022/04/13 04:02:43;;;;;;;;;;;;;;;11.32;36.64;100129.41;4494768;31;32166;-64
2022/04/13 04:05:14;;;;;;;;;;;;;;;11.19;36.60;100140.12;4481450;32;32883;-65
2022/04/13 04:07:42;;;;;;;;;;;;;;;11.25;36.75;100129.97;4480909;32;34166;-66
2022/04/13 04:10:11;;;;;;;;;;;;;;;11.03;36.94;100133.28;4487056;31;34787;-67
2022/04/13 04:12:40;;;;;;;;;;;;;;;10.46;37.77;100139.88;4487158;31;32402;-64
2022/04/13 04:15:11;;;;;;;;;;;;;;;10.64;37.74;100138.63;4488321;31;34504;-64
2022/04/13 04:17:39;;;;;;;;;;;;;;;10.86;37.69;100140.69;4494155;31;33906;-66
2022/04/13 04:20:09;;;;;;;;;;;;;;;10.89;37.38;100139.63;4489592;31;32951;-65
2022/04/13 04:22:38;;;;;;;;;;;;;;;11.06;36.72;100141.97;4490820;31;33434;-64
2022/04/13 04:25:09;;;;;;;;;;;;;;;11.04;36.82;100149.25;4494642;31;34966;-66
2022/04/13 04:27:38;;;;;;;;;;;;;;;11.07;36.95;100142.81;4495841;31;33086;-64
2022/04/13 04:30:08;;;;;;;;;;;;;;;10.91;37.65;100146.59;4493500;31;33224;-66
2022/04/13 04:32:37;;;;;;;;;;;;;;;11.15;36.90;100149.34;4495857;31;34394;-69
2022/04/13 04:35:08;;;;;;;;;;;;;;;11.19;36.78;100158.03;4485204;31;34387;-66
2022/04/13 04:37:37;;;;;;;;;;;;;;;11.31;37.29;100159.00;4485387;31;34347;-68
2022/04/13 04:40:08;;;;;;;;;;;;;;;11.41;36.85;100165.41;4480881;32;33129;-68
2022/04/13 04:42:45;;;;;;;;;;;;;;;11.39;36.82;100168.19;4481244;31;33701;-66
2022/04/13 04:45:16;;;;;;;;;;;;;;;11.43;37.62;100161.66;4483162;31;33311;-63
2022/04/13 04:47:47;;;;;;;;;;;;;;;11.63;36.98;100162.03;4486296;31;33972;-63
2022/04/13 04:50:18;;;;;;;;;;;;;;;11.65;37.47;100158.28;4495179;31;32917;-64
2022/04/13 04:52:47;;;;;;;;;;;;;;;11.73;36.67;100167.59;4488147;31;34647;-65
2022/04/13 04:55:16;;;;;;;;;;;;;;;11.90;35.96;100161.88;4495863;31;33337;-67
2022/04/13 04:57:45;;;;;;;;;;;;;;;11.97;36.50;100173.00;4489032;31;33363;-65
2022/04/13 05:00:15;;;;;;;;;;;;;;;12.14;36.51;100169.94;4485635;31;33186;-65
2022/04/13 05:02:44;;;;;;;;;;;;;;;12.21;36.13;100168.50;4491331;31;35137;-69
2022/04/13 05:05:13;;;;;;;;;;;;;;;12.41;36.10;100167.00;4485772;31;35239;-66
2022/04/13 05:07:42;;;;;;;;;;;;;;;12.57;35.90;100172.91;4486747;31;33803;-67
2022/04/13 05:10:11;;;;;;;;;;;;;;;12.75;35.78;100175.19;4483540;31;32680;-64
2022/04/13 05:12:43;;;;;;;;;;;;;;;12.60;36.09;100171.84;4495768;31;34358;-64
2022/04/13 05:15:12;;;;;;;;;;;;;;;12.91;35.74;100170.34;4495522;31;33927;-64
2022/04/13 05:17:41;;;;;;;;;;;;;;;13.12;35.10;100172.31;4490618;31;33519;-63
2022/04/13 05:20:09;;;;;;;;;;;;;;;12.93;36.14;100178.25;4486934;31;34793;-66
2022/04/13 05:22:38;;;;;;;;;;;;;;;13.16;36.15;100171.97;4484807;31;32295;-63
2022/04/13 05:25:08;;;;;;;;;;;;;;;13.33;35.98;100177.88;4483637;31;35002;-64
2022/04/13 05:27:36;;;;;;;;;;;;;;;13.49;35.38;100175.66;4491985;31;34350;-63
2022/04/13 05:30:05;;;;;;;;;;;;;;;13.47;34.93;100189.22;4497154;31;35354;-67
2022/04/13 05:32:44;;;;;;;;;;;;;;;14.45;33.38;100183.03;4495677;31;33160;-65
2022/04/13 05:35:13;;;;;;;;;;;;;;;14.63;33.24;100186.88;4484065;31;35278;-64
2022/04/13 05:37:41;;;;;;;;;;;;;;;14.48;33.55;100189.97;4489687;31;33815;-64
2022/04/13 05:40:10;;;;;;;;;;;;;;;14.29;33.04;100196.06;4486392;31;32939;-64
2022/04/13 05:42:38;;;;;;;;;;;;;;;13.83;34.43;100197.13;4493810;31;34572;-63
2022/04/13 05:45:08;;;;;;;;;;;;;;;13.87;34.10;100204.84;4492669;31;35707;-63
2022/04/13 05:47:37;;;;;;;;;;;;;;;14.03;34.13;100215.22;4491507;31;33136;-67
2022/04/13 05:50:06;;;;;;;;;;;;;;;14.05;33.66;100205.16;4481229;32;33086;-65
2022/04/13 05:52:34;;;;;;;;;;;;;;;14.02;33.73;100204.56;4479730;32;33175;-64
2022/04/13 05:55:03;;;;;;;;;;;;;;;13.79;35.04;100209.13;4472563;32;35526;-64
2022/04/13 05:57:31;;;;;;;;;;;;;;;13.78;33.77;100204.75;4480087;32;35420;-67
2022/04/13 05:59:59;;;;;;;;;;;;;;;13.74;33.30;100213.06;4488309;31;33046;-64
2022/04/13 06:02:27;;;;;;;;;;;;;;;13.37;34.24;100212.44;4488950;31;32215;-64
2022/04/13 06:04:56;;;;;;;;;;;;;;;14.16;33.55;100215.94;4497169;31;34425;-65
2022/04/13 06:07:24;;;;;;;;;;;;;;;14.28;33.57;100213.19;4492214;31;34278;-65
2022/04/13 06:09:52;;;;;;;;;;;;;;;13.84;34.20;100210.47;4492866;31;34313;-66
2022/04/13 06:12:22;;;;;;;;;;;;;;;12.86;35.89;100220.84;4486003;31;34063;-64
2022/04/13 06:15:03;;;;;;;;;;;;;;;13.18;35.22;100225.59;4489771;31;32960;-66
2022/04/13 06:17:33;;;;;;;;;;;;;;;13.27;36.05;100225.75;4485730;31;33422;-65
2022/04/13 06:20:03;;;;;;;;;;;;;;;11.88;36.99;100237.09;4488294;31;35008;-69
2022/04/13 06:22:33;;;;;;;;;;;;;;;11.65;37.65;100240.53;4482815;31;35667;-65
2022/04/13 06:25:03;;;;;;;;;;;;;;;13.09;35.95;100231.66;4482190;31;34946;-65
2022/04/13 06:27:31;;;;;;;;;;;;;;;13.44;35.03;100232.47;4483403;31;32929;-65
2022/04/13 06:30:00;;;;;;;;;;;;;;;12.90;36.26;100245.66;4496488;31;34081;-64
2022/04/13 06:32:32;;;;;;;;;;;;;;;13.13;35.09;100231.31;4487825;31;33225;-74
2022/04/13 06:35:02;;;;;;;;;;;;;;;12.75;35.01;100245.88;4484874;31;34216;-66
2022/04/13 06:37:36;;;;;;;;;;;;;;;13.01;35.47;100240.34;4481350;31;34697;-65
2022/04/13 06:40:07;;;;;;;;;;;;;;;12.56;35.38;100249.09;4496117;31;33250;-64
2022/04/13 06:42:37;;;;;;;;;;;;;;;12.56;35.49;100245.53;4489397;31;33378;-69
2022/04/13 06:45:07;;;;;;;;;;;;;;;12.68;36.41;100249.12;4485247;31;34040;-68
2022/04/13 06:47:37;;;;;;;;;;;;;;;12.98;34.78;100245.94;4470194;31;33592;-68
2022/04/13 06:50:08;;;;;;;;;;;;;;;12.34;35.80;100257.87;4494019;31;33906;-66
2022/04/13 06:52:38;;;;;;;;;;;;;;;12.75;34.66;100255.75;4473293;31;31902;-66
2022/04/13 06:55:11;;;;;;;;;;;;;;;12.91;34.88;100247.37;4492705;31;34388;-67
2022/04/13 06:57:41;;;;;;;;;;;;;;;12.72;36.18;100250.63;4476563;31;32552;-65
2022/04/13 07:00:16;;;;;;;;;;;;;;;12.79;34.64;100257.22;4489337;31;34972;-66
2022/04/13 07:02:57;;;;;;;;;;;;;;;12.85;35.38;100245.16;4490237;31;32434;-67
2022/04/13 07:05:52;;;;;;;;;;;;;;;12.96;35.13;100247.88;4486167;31;32759;-65
2022/04/13 07:08:34;;;;;;;;;;;;;;;13.12;34.77;100248.41;4497287;31;34424;-65
2022/04/13 07:11:15;;;;;;;;;;;;;;;13.12;34.40;100258.31;4487292;31;35296;-65
2022/04/13 07:13:55;;;;;;;;;;;;;;;13.13;34.00;100250.13;4484821;32;32155;-66
2022/04/13 07:16:32;;;;;;;;;;;;;;;13.21;33.81;100257.59;4484791;32;33380;-65
2022/04/13 07:19:18;;;;;;;;;;;;;;;13.49;33.54;100261.72;4493859;31;33061;-65
2022/04/13 07:21:57;;;;;;;;;;;;;;;13.56;33.51;100262.09;4497759;31;32948;-65
2022/04/13 07:24:41;;;;;;;;;;;;;;;13.81;33.02;100263.69;4492940;31;33852;-65
2022/04/13 07:27:22;;;;;;;;;;;;;;;13.47;33.88;100255.59;4499414;31;32886;-65
2022/04/13 07:29:59;;;;;;;;;;;;;;;13.89;32.27;100261.22;4490997;31;32630;-66
2022/04/13 07:32:44;;;;;;;;;;;;;;;14.02;31.86;100259.25;4484929;32;32846;-67
2022/04/13 07:35:25;;;;;;;;;;;;;;;14.34;31.73;100258.47;4491331;31;32504;-66
2022/04/13 07:38:02;;;;;;;;;;;;;;;14.40;31.06;100260.66;4488589;31;32873;-66
2022/04/13 07:40:42;;;;;;;;;;;;;;;14.21;31.36;100264.84;4485153;31;33899;-65
2022/04/13 07:43:27;;;;;;;;;;;;;;;13.57;31.44;100266.47;4380619;31;3730571;-65
2022/04/13 07:46:07;;;;;;;;;;;;;;;14.27;31.30;100271.56;4491719;31;33418;-65
2022/04/13 07:48:45;;;;;;;;;;;;;;;14.41;30.29;100267.72;4497725;31;33277;-65
2022/04/13 07:51:20;;;;;;;;;;;;;;;14.87;30.16;100263.94;4485162;31;33409;-65
2022/04/13 07:53:58;;;;;;;;;;;;;;;14.65;29.66;100265.75;4491479;31;32568;-65
2022/04/13 07:56:35;;;;;;;;;;;;;;;15.38;29.90;100264.03;4492963;31;33186;-65
2022/04/13 07:59:14;;;;;;;;;;;;;;;15.57;28.97;100271.37;4487385;31;32793;-66
2022/04/13 08:01:58;;;;;;;;;;;;;;;15.82;29.91;100270.06;4488448;31;34848;-65
2022/04/13 08:04:41;;;;;;;;;;;;;;;14.93;28.97;100274.22;4490823;31;34464;-68
2022/04/13 08:07:18;;;;;;;;;;;;;;;15.80;28.79;100273.94;4499056;31;33412;-65
2022/04/13 08:09:59;;;;;;;;;;;;;;;14.76;28.86;100267.53;4496958;31;33753;-65
2022/04/13 08:12:41;;;;;;;;;;;;;;;15.25;28.61;100273.28;4497123;31;34465;-67
2022/04/13 08:15:15;;;;;;;;;;;;;;;15.37;28.97;100274.94;4494188;31;33986;-66
2022/04/13 08:18:01;;;;;;;;;;;;;;;15.75;28.56;100278.88;4477412;32;34206;-65
2022/04/13 08:20:44;;;;;;;;;;;;;;;15.96;27.92;100281.53;4482014;31;32415;-66
2022/04/13 08:23:19;;;;;;;;;;;;;;;16.20;26.82;100273.06;4494230;31;33206;-66
2022/04/13 08:25:58;;;;;;;;;;;;;;;15.54;26.83;100277.03;4484628;32;33002;-67
2022/04/13 08:28:37;;;;;;;;;;;;;;;16.94;26.13;100278.03;4485059;32;33108;-66
2022/04/13 08:31:09;;;;;;;;;;;;;;;16.79;25.73;100284.84;4484830;32;33560;-65
2022/04/13 08:33:47;;;;;;;;;;;;;;;16.82;24.61;100271.94;4488502;31;34331;-66
2022/04/13 08:36:28;;;;;;;;;;;;;;;15.57;25.73;100279.47;4485037;32;33081;-65
2022/04/13 08:39:03;;;;;;;;;;;;;;;16.13;26.11;100277.31;4491686;31;31991;-69
2022/04/13 08:41:41;;;;;;;;;;;;;;;16.56;25.41;100274.25;4496623;31;32140;-65
2022/04/13 08:44:41;;;;;;;;;;;;;;;16.58;25.40;100276.84;4488469;31;34243;-65
2022/04/13 08:47:29;;;;;;;;;;;;;;;16.24;24.79;100278.06;4500771;31;34523;-66
2022/04/13 08:50:03;;;;;;;;;;;;;;;16.58;25.17;100271.44;4488941;31;32244;-64
2022/04/13 08:52:33;;;;;;;;;;;;;;;16.48;25.64;100280.38;4469805;31;34311;-65
2022/04/13 08:55:04;;;;;;;;;;;;;;;17.45;25.26;100266.00;4490982;31;31762;-63
2022/04/13 08:57:45;;;;;;;;;;;;;;;17.10;25.59;100282.84;4491130;31;33404;-64
2022/04/13 09:00:19;;;;;;;;;;;;;;;16.64;25.66;100277.13;4476568;31;33248;-64
2022/04/13 09:02:53;;;;;;;;;;;;;;;17.45;24.77;100279.53;4496155;31;34189;-64
2022/04/13 09:05:23;;;;;;;;;;;;;;;17.23;25.14;100270.72;4496237;31;32925;-64
2022/04/13 09:08:05;;;;;;;;;;;;;;;17.55;25.09;100269.53;4496827;31;32875;-68
2022/04/13 09:10:41;;;;;;;;;;;;;;;17.63;25.47;100263.41;4493027;31;31879;-63
2022/04/13 09:13:21;;;;;;;;;;;;;;;17.63;25.34;100266.09;4491099;31;32737;-65
2022/04/13 09:15:53;;;;;;;;;;;;;;;18.05;24.57;100262.97;4497759;31;34503;-65
2022/04/13 09:18:37;;;;;;;;;;;;;;;17.89;25.22;100275.28;4462445;32;34168;-68
2022/04/13 09:21:17;;;;;;;;;;;;;;;17.21;25.75;100274.59;4489512;31;32891;-67
2022/04/13 09:23:53;;;;;;;;;;;;;;;17.98;23.97;100273.56;4479772;31;32841;-65
2022/04/13 09:26:29;;;;;;;;;;;;;;;18.47;23.10;100265.16;4494226;31;34183;-66
2022/04/13 09:29:13;;;;;;;;;;;;;;;18.58;23.18;100260.34;4472797;31;32880;-66
2022/04/13 09:31:54;;;;;;;;;;;;;;;17.51;24.45;100257.28;4487468;31;32625;-67
2022/04/13 09:34:30;;;;;;;;;;;;;;;18.61;24.64;100257.31;4485369;31;33148;-66
2022/04/13 09:37:02;;;;;;;;;;;;;;;19.19;22.97;100252.44;4484442;31;33000;-66
2022/04/13 09:39:31;;;;;;;;;;;;;;;18.78;23.18;100260.22;4481910;31;32803;-65
2022/04/13 09:42:05;;;;;;;;;;;;;;;18.65;23.23;100252.47;4469132;32;33796;-64
2022/04/13 09:44:44;;;;;;;;;;;;;;;19.01;22.90;100257.91;4469689;32;35423;-65
2022/04/13 09:47:23;;;;;;;;;;;;;;;19.50;22.89;100255.56;4488453;31;33057;-68
2022/04/13 09:50:02;;;;;;;;;;;;;;;19.93;22.61;100251.06;4494476;31;34341;-66
2022/04/13 09:52:49;;;;;;;;;;;;;;;20.02;21.90;100244.66;4493131;31;33518;-67
2022/04/13 09:55:36;;;;;;;;;;;;;;;20.52;21.84;100249.25;4496468;31;32977;-67
2022/04/13 09:58:16;;;;;;;;;;;;;;;18.60;23.69;100246.66;4490732;31;34427;-69
2022/04/13 10:01:00;;;;;;;;;;;;;;;19.21;23.33;100254.00;4483370;31;34086;-67
2022/04/13 10:03:33;;;;;;;;;;;;;;;19.95;22.49;100246.31;4491970;31;32358;-67
2022/04/13 10:06:07;;;;;;;;;;;;;;;20.27;22.86;100242.03;4487449;31;34302;-67
2022/04/13 10:08:39;;;;;;;;;;;;;;;19.75;23.00;100241.13;4483124;31;32652;-67
2022/04/13 10:11:13;;;;;;;;;;;;;;;20.70;22.18;100236.34;4483675;31;33016;-72
2022/04/13 10:13:50;;;;;;;;;;;;;;;20.94;21.34;100230.09;4492528;31;31496;-67
2022/04/13 10:16:20;;;;;;;;;;;;;;;20.59;21.94;100233.97;4487097;31;34479;-68
2022/04/13 10:18:55;;;;;;;;;;;;;;;20.08;21.86;100235.84;4494704;31;31990;-66
2022/04/13 10:21:36;;;;;;;;;;;;;;;20.61;21.54;100240.09;4492213;31;33685;-68
2022/04/13 10:24:10;;;;;;;;;;;;;;;20.90;20.89;100227.91;4483681;31;33221;-67
2022/04/13 10:26:42;;;;;;;;;;;;;;;21.12;22.02;100223.59;4484116;31;34043;-68
2022/04/13 10:29:25;;;;;;;;;;;;;;;19.40;22.20;100241.25;4473034;31;34367;-67
2022/04/13 10:32:12;;;;;;;;;;;;;;;20.31;21.48;100230.66;4493517;31;32785;-67
2022/04/13 10:34:51;;;;;;;;;;;;;;;20.60;21.81;100230.22;4484566;31;34555;-67
2022/04/13 10:37:26;;;;;;;;;;;;;;;20.24;21.49;100222.31;4493152;31;35042;-66
2022/04/13 10:40:05;;;;;;;;;;;;;;;20.00;21.75;100225.81;4489848;31;33243;-68
2022/04/13 10:42:42;;;;;;;;;;;;;;;20.52;21.73;100219.34;4481453;31;33416;-67
2022/04/13 10:45:13;;;;;;;;;;;;;;;19.82;22.29;100216.03;4469651;31;33458;-67
2022/04/13 10:47:48;;;;;;;;;;;;;;;19.84;22.53;100214.00;4484569;31;34814;-68
2022/04/13 10:50:16;;;;;;;;;;;;;;;19.97;21.56;100212.53;4482416;31;34212;-66
2022/04/13 10:52:57;;;;;;;;;;;;;;;20.04;21.97;100201.88;4469112;31;33928;-67
2022/04/13 10:55:27;;;;;;;;;;;;;;;20.44;21.34;100200.25;4487950;31;33696;-66
2022/04/13 10:58:01;;;;;;;;;;;;;;;19.11;22.06;100198.12;4486252;31;33683;-65
2022/04/13 11:00:31;;;;;;;;;;;;;;;18.96;22.52;100197.84;4486102;31;34389;-70
2022/04/13 11:03:05;;;;;;;;;;;;;;;20.51;21.81;100190.44;4489154;31;33707;-67
2022/04/13 11:05:33;;;;;;;;;;;;;;;19.83;21.57;100196.00;4482867;31;33270;-67
2022/04/13 11:08:10;;;;;;;;;;;;;;;20.40;21.43;100198.91;4482575;32;33955;-68
2022/04/13 11:10:38;;;;;;;;;;;;;;;21.09;20.08;100181.28;4481950;32;34343;-70
2022/04/13 11:13:07;;;;;;;;;;;;;;;20.41;21.84;100181.56;4469359;32;32711;-66
2022/04/13 11:15:45;;;;;;;;;;;;;;;21.02;20.10;100182.97;4483283;31;33512;-66
2022/04/13 11:18:17;;;;;;;;;;;;;;;20.68;21.07;100178.56;4485620;31;33035;-66
2022/04/13 11:21:11;;;;;;;;;;;;;;;21.01;20.42;100169.53;4488634;31;34532;-69
2022/04/13 11:23:42;;;;;;;;;;;;;;;21.50;20.27;100172.19;4489413;31;34159;-66
2022/04/13 11:26:10;;;;;;;;;;;;;;;19.78;21.81;100181.06;4494397;31;33467;-67
2022/04/13 11:28:38;;;;;;;;;;;;;;;19.91;22.33;100172.44;4485836;31;34474;-66
2022/04/13 11:31:07;;;;;;;;;;;;;;;20.85;21.66;100171.25;4471821;31;34397;-67
2022/04/13 11:33:59;;;;;;;;;;;;;;;21.05;21.02;100171.75;4487972;31;33236;-71
2022/04/13 11:36:30;;;;;;;;;;;;;;;21.14;20.40;100165.25;4476007;31;34398;-66
2022/04/13 11:39:12;;;;;;;;;;;;;;;20.89;21.26;100166.31;4486935;31;34009;-66
2022/04/13 11:41:49;;;;;;;;;;;;;;;21.01;21.59;100159.50;4488507;31;33924;-69
2022/04/13 11:44:17;;;;;;;;;;;;;;;20.69;21.23;100150.34;4493666;31;34364;-66
2022/04/13 11:46:44;;;;;;;;;;;;;;;21.32;20.92;100147.88;4484205;31;32143;-70
2022/04/13 11:49:12;;;;;;;;;;;;;;;21.93;20.64;100148.19;4471697;31;34453;-67
2022/04/13 11:51:40;;;;;;;;;;;;;;;21.67;20.64;100151.19;4467114;31;32964;-66
2022/04/13 11:54:09;;;;;;;;;;;;;;;20.21;21.66;100149.25;4486692;31;33042;-66
2022/04/13 11:56:38;;;;;;;;;;;;;;;19.99;22.57;100153.44;4492648;31;32944;-68
2022/04/13 11:59:06;;;;;;;;;;;;;;;19.85;22.37;100145.94;4493390;31;34589;-67
2022/04/13 12:01:34;;;;;;;;;;;;;;;21.45;21.66;100145.50;4469092;31;34704;-67
2022/04/13 12:04:03;;;;;;;;;;;;;;;20.65;22.25;100148.16;4490471;31;32862;-70
2022/04/13 12:06:31;;;;;;;;;;;;;;;21.52;20.93;100138.31;4470145;31;33407;-66
2022/04/13 12:09:00;;;;;;;;;;;;;;;21.90;20.36;100132.19;4485851;31;32970;-66
2022/04/13 12:11:41;;;;;;;;;;;;;;;20.84;21.40;100131.47;4478685;31;31840;-66
2022/04/13 12:14:10;;;;;;;;;;;;;;;20.00;21.95;100138.03;4474596;32;35441;-67
2022/04/13 12:16:38;;;;;;;;;;;;;;;21.09;21.34;100124.13;4486169;31;33511;-67
2022/04/13 12:19:09;;;;;;;;;;;;;;;21.91;21.20;100122.97;4483759;31;34170;-68
2022/04/13 12:21:40;;;;;;;;;;;;;;;21.09;20.76;100123.25;4467427;31;33651;-66
2022/04/13 12:24:09;;;;;;;;;;;;;;;20.02;21.82;100127.81;4487587;31;33273;-66
2022/04/13 12:26:41;;;;;;;;;;;;;;;21.31;22.56;100111.63;4481978;31;32486;-66
2022/04/13 12:29:12;;;;;;;;;;;;;;;20.87;21.45;100108.53;4471590;31;32807;-66
2022/04/13 12:31:47;;;;;;;;;;;;;;;19.63;22.91;100117.50;4482039;31;34350;-66
2022/04/13 12:34:19;;;;;;;;;;;;;;;20.32;22.13;100109.16;4482014;31;32689;-67
2022/04/13 12:36:51;;;;;;;;;;;;;;;21.06;21.48;100104.56;4479588;31;31894;-67
2022/04/13 12:39:23;;;;;;;;;;;;;;;21.95;21.00;100097.06;4480820;31;32452;-67
2022/04/13 12:41:51;;;;;;;;;;;;;;;22.00;21.92;100089.22;4484880;31;34264;-66
2022/04/13 12:44:19;;;;;;;;;;;;;;;21.61;21.47;100092.84;4471346;31;33984;-66
2022/04/13 12:46:47;;;;;;;;;;;;;;;21.37;21.28;100088.34;4490131;31;33454;-68
2022/04/13 12:49:19;;;;;;;;;;;;;;;20.96;21.13;100088.41;4482477;31;32885;-66
2022/04/13 12:51:47;;;;;;;;;;;;;;;21.29;21.03;100086.47;4486210;31;34249;-66
2022/04/13 12:54:18;;;;;;;;;;;;;;;21.25;20.67;100085.13;4475304;31;34965;-67
2022/04/13 12:56:46;;;;;;;;;;;;;;;21.95;21.38;100073.38;4472721;31;32865;-67
2022/04/13 12:59:19;;;;;;;;;;;;;;;21.77;19.99;100070.13;4487150;31;34920;-67
2022/04/13 13:01:48;;;;;;;;;;;;;;;21.95;20.93;100069.81;4484448;31;35509;-66